Time;durP1;ratioP1;P1;durP2;ratioP2;P2;SDS_P1;SDS_P2;PMS_P1;PMS_P2;Temp;Humidity;BMP_temperature;BMP_pressure;BME280_temperature;BME280_humidity;BME280_pressure;Samples;Min_cycle;Max_cycle;Signal;HPM_P1;HPM_P2
2023/08/14 00:01:37;;;;;;;2.43;1.23;;;;;;;;;;4946734;28;93958;-57
2023/08/14 00:04:05;;;;;;;1.93;1.40;;;;;;;;;;4945967;28;92087;-57
2023/08/14 00:06:34;;;;;;;1.43;1.33;;;;;;;;;;4987670;28;92182;-57
2023/08/14 00:09:03;;;;;;;2.97;1.97;;;;;;;;;;4978209;28;93797;-57
2023/08/14 00:11:31;;;;;;;1.17;1.07;;;;;;;;;;4991021;28;92776;-57
2023/08/14 00:14:01;;;;;;;2.33;1.03;;;;;;;;;;4997286;28;92069;-57
2023/08/14 00:16:29;;;;;;;1.73;0.93;;;;;;;;;;4996253;28;92192;-57
2023/08/14 00:18:58;;;;;;;1.63;1.20;;;;;;;;;;4987223;28;93931;-57
2023/08/14 00:21:26;;;;;;;1.80;1.30;;;;;;;;;;4990958;28;92714;-58
2023/08/14 00:23:55;;;;;;;2.23;1.17;;;;;;;;;;4980134;28;92003;-57
2023/08/14 00:26:23;;;;;;;1.60;1.00;;;;;;;;;;4997702;28;92114;-57
2023/08/14 00:28:52;;;;;;;2.50;0.97;;;;;;;;;;4995276;28;92890;-57
2023/08/14 00:31:21;;;;;;;1.73;1.10;;;;;;;;;;4991712;28;92754;-57
2023/08/14 00:33:52;;;;;;;0.80;0.80;;;;;;;;;;4997110;28;92093;-57
2023/08/14 00:36:20;;;;;;;2.20;1.17;;;;;;;;;;4994211;28;91367;-57
2023/08/14 00:38:48;;;;;;;1.30;1.00;;;;;;;;;;4994865;28;93087;-57
2023/08/14 00:41:17;;;;;;;1.27;1.10;;;;;;;;;;4984011;28;93880;-57
2023/08/14 00:43:45;;;;;;;0.83;0.83;;;;;;;;;;4992291;28;92954;-57
2023/08/14 00:46:14;;;;;;;1.40;1.20;;;;;;;;;;4981160;28;92332;-57
2023/08/14 00:48:44;;;;;;;2.30;1.20;;;;;;;;;;4994680;28;93814;-57
2023/08/14 00:51:12;;;;;;;1.17;0.97;;;;;;;;;;4976875;28;93892;-57
2023/08/14 00:53:40;;;;;;;2.53;1.40;;;;;;;;;;4992620;28;92120;-57
2023/08/14 00:56:09;;;;;;;1.03;0.83;;;;;;;;;;4980793;28;92192;-57
2023/08/14 00:58:37;;;;;;;2.03;1.30;;;;;;;;;;4988799;28;94109;-57
2023/08/14 01:01:07;;;;;;;1.77;1.20;;;;;;;;;;4989588;28;93751;-57
2023/08/14 01:03:35;;;;;;;1.93;1.10;;;;;;;;;;4985225;28;91857;-57
2023/08/14 01:06:05;;;;;;;1.27;1.17;;;;;;;;;;4993810;28;92699;-57
2023/08/14 01:08:34;;;;;;;1.13;1.00;;;;;;;;;;4982945;28;95071;-57
2023/08/14 01:11:05;;;;;;;2.67;1.20;;;;;;;;;;4989837;28;93517;-57
2023/08/14 01:13:36;;;;;;;1.27;1.17;;;;;;;;;;4994916;28;92076;-57
2023/08/14 01:16:06;;;;;;;2.17;1.33;;;;;;;;;;4983974;28;92100;-57
2023/08/14 01:18:35;;;;;;;1.43;1.10;;;;;;;;;;4998448;28;93108;-57
2023/08/14 01:21:13;;;;;;;3.27;1.10;;;;;;;;;;4996557;28;92763;-57
2023/08/14 01:23:46;;;;;;;1.47;1.20;;;;;;;;;;4999334;28;92465;-57
2023/08/14 01:26:16;;;;;;;1.00;0.97;;;;;;;;;;4995919;28;91375;-57
2023/08/14 01:28:44;;;;;;;3.03;1.30;;;;;;;;;;4983674;28;93126;-57
2023/08/14 01:31:13;;;;;;;1.43;1.10;;;;;;;;;;4991059;28;93795;-57
2023/08/14 01:33:42;;;;;;;1.00;0.70;;;;;;;;;;4997284;28;93319;-57
2023/08/14 01:36:11;;;;;;;1.43;1.17;;;;;;;;;;4996458;28;92074;-57
2023/08/14 01:38:40;;;;;;;1.20;1.00;;;;;;;;;;4986079;28;94188;-57
2023/08/14 01:41:10;;;;;;;1.07;0.97;;;;;;;;;;4988365;28;92637;-57
2023/08/14 01:43:41;;;;;;;2.60;1.20;;;;;;;;;;4994906;28;91971;-57
2023/08/14 01:46:10;;;;;;;1.13;0.90;;;;;;;;;;4982887;28;92010;-57
2023/08/14 01:48:39;;;;;;;1.50;0.97;;;;;;;;;;4991705;28;93040;-57
2023/08/14 01:51:07;;;;;;;2.50;1.13;;;;;;;;;;4990660;28;92765;-57
2023/08/14 01:53:35;;;;;;;1.00;0.80;;;;;;;;;;4999162;28;92054;-57
2023/08/14 01:56:04;;;;;;;2.20;1.20;;;;;;;;;;4982442;28;92135;-57
2023/08/14 01:58:32;;;;;;;2.20;1.20;;;;;;;;;;4997924;28;95027;-57
2023/08/14 02:01:02;;;;;;;1.27;0.80;;;;;;;;;;4989469;28;93669;-57
2023/08/14 02:03:31;;;;;;;0.90;0.90;;;;;;;;;;4994138;28;92006;-57
2023/08/14 02:05:59;;;;;;;1.30;0.97;;;;;;;;;;4996971;28;92069;-57
2023/08/14 02:08:28;;;;;;;3.63;1.07;;;;;;;;;;4987631;28;94410;-57
2023/08/14 02:10:56;;;;;;;2.20;0.93;;;;;;;;;;4988988;28;93758;-57
2023/08/14 02:13:24;;;;;;;1.27;0.83;;;;;;;;;;4992558;28;92511;-57
2023/08/14 02:15:53;;;;;;;0.97;0.97;;;;;;;;;;4996543;28;91587;-57
2023/08/14 02:18:22;;;;;;;1.87;0.80;;;;;;;;;;4993020;28;93181;-57
2023/08/14 02:20:51;;;;;;;3.23;0.93;;;;;;;;;;4986494;28;93119;-57
2023/08/14 02:23:19;;;;;;;3.80;0.80;;;;;;;;;;4987329;28;93143;-57
2023/08/14 02:25:48;;;;;;;0.80;0.70;;;;;;;;;;4994926;28;92207;-57
2023/08/14 02:28:16;;;;;;;0.83;0.70;;;;;;;;;;4994781;28;94164;-57
2023/08/14 02:30:44;;;;;;;0.80;0.80;;;;;;;;;;4997932;28;93752;-57
2023/08/14 02:33:13;;;;;;;1.03;0.97;;;;;;;;;;4997474;28;92111;-57
2023/08/14 02:35:43;;;;;;;2.83;1.00;;;;;;;;;;4997864;28;92186;-57
2023/08/14 02:38:11;;;;;;;1.20;1.03;;;;;;;;;;4997164;28;94134;-57
2023/08/14 02:40:40;;;;;;;3.37;1.40;;;;;;;;;;4994272;28;93904;-57
2023/08/14 02:43:08;;;;;;;4.00;1.50;;;;;;;;;;4996678;28;92090;-57
2023/08/14 02:45:37;;;;;;;3.10;1.50;;;;;;;;;;4993905;28;92162;-57
2023/08/14 02:48:06;;;;;;;1.73;1.50;;;;;;;;;;4983808;28;95201;-57
2023/08/14 02:50:35;;;;;;;3.10;1.80;;;;;;;;;;4982243;28;93697;-57
2023/08/14 02:53:05;;;;;;;2.90;1.87;;;;;;;;;;4985181;28;92123;-57
2023/08/14 02:55:33;;;;;;;1.93;1.77;;;;;;;;;;4990343;28;92084;-57
2023/08/14 02:58:01;;;;;;;3.63;2.20;;;;;;;;;;4992069;28;93229;-57
2023/08/14 03:00:30;;;;;;;2.87;1.80;;;;;;;;;;4996068;28;92801;-58
2023/08/14 03:02:59;;;;;;;4.43;2.77;;;;;;;;;;4986129;28;92109;-57
2023/08/14 03:05:28;;;;;;;5.17;2.90;;;;;;;;;;4992443;28;91320;-57
2023/08/14 03:07:56;;;;;;;5.37;2.90;;;;;;;;;;4993812;28;93675;-57
2023/08/14 03:10:26;;;;;;;4.30;2.63;;;;;;;;;;4979837;28;93868;-57
2023/08/14 03:12:55;;;;;;;6.00;3.00;;;;;;;;;;4994891;28;93124;-57
2023/08/14 03:15:23;;;;;;;5.10;2.83;;;;;;;;;;4981347;28;92556;-58
2023/08/14 03:17:51;;;;;;;4.60;2.77;;;;;;;;;;4993601;28;94260;-57
2023/08/14 03:20:20;;;;;;;5.13;2.77;;;;;;;;;;4979754;28;92987;-57
2023/08/14 03:22:49;;;;;;;4.07;2.67;;;;;;;;;;4990903;28;92302;-57
2023/08/14 03:25:17;;;;;;;3.97;2.93;;;;;;;;;;4979818;28;92234;-57
2023/08/14 03:27:47;;;;;;;5.60;2.77;;;;;;;;;;4974201;28;94065;-57
2023/08/14 03:30:15;;;;;;;5.47;3.40;;;;;;;;;;4994610;28;92786;-57
2023/08/14 03:32:44;;;;;;;4.70;3.07;;;;;;;;;;4995380;28;92482;-57
2023/08/14 03:35:12;;;;;;;3.63;2.57;;;;;;;;;;4993378;28;92752;-57
2023/08/14 03:37:41;;;;;;;5.80;2.63;;;;;;;;;;4978694;28;94024;-57
2023/08/14 03:40:09;;;;;;;3.63;2.83;;;;;;;;;;4988768;28;93700;-57
2023/08/14 03:42:38;;;;;;;3.97;2.80;;;;;;;;;;4975466;28;92092;-57
2023/08/14 03:45:09;;;;;;;3.33;2.50;;;;;;;;;;4974851;28;92160;-57
2023/08/14 03:47:37;;;;;;;5.90;2.73;;;;;;;;;;4975403;28;93637;-57
2023/08/14 03:50:06;;;;;;;4.50;2.70;;;;;;;;;;4975114;28;94013;-57
2023/08/14 03:52:35;;;;;;;4.70;3.10;;;;;;;;;;4984287;28;92116;-58
2023/08/14 03:55:03;;;;;;;3.13;2.53;;;;;;;;;;4994998;28;91360;-57
2023/08/14 03:57:32;;;;;;;7.47;2.80;;;;;;;;;;4994608;28;94455;-57
2023/08/14 04:00:00;;;;;;;6.37;2.87;;;;;;;;;;4994355;28;92392;-57
2023/08/14 04:02:30;;;;;;;4.03;2.47;;;;;;;;;;4990995;28;94099;-57
2023/08/14 04:04:58;;;;;;;3.97;2.70;;;;;;;;;;4988110;28;92139;-58
2023/08/14 04:07:27;;;;;;;4.63;2.70;;;;;;;;;;4991623;28;92782;-57
2023/08/14 04:09:56;;;;;;;4.30;2.70;;;;;;;;;;4993889;28;93738;-57
2023/08/14 04:12:24;;;;;;;4.30;2.57;;;;;;;;;;4985069;28;92136;-57
2023/08/14 04:14:53;;;;;;;2.83;2.40;;;;;;;;;;4990241;28;92564;-57
2023/08/14 04:17:21;;;;;;;4.80;2.53;;;;;;;;;;4991582;28;92049;-58
2023/08/14 04:19:51;;;;;;;3.17;2.20;;;;;;;;;;4991695;28;92661;-57
2023/08/14 04:22:19;;;;;;;3.93;2.80;;;;;;;;;;4997512;28;92515;-57
2023/08/14 04:24:48;;;;;;;3.27;2.47;;;;;;;;;;4997594;28;91902;-57
2023/08/14 04:27:17;;;;;;;3.50;2.30;;;;;;;;;;4996217;28;94035;-57
2023/08/14 04:29:45;;;;;;;2.77;2.07;;;;;;;;;;4997179;28;93826;-57
2023/08/14 04:32:14;;;;;;;4.47;2.17;;;;;;;;;;4984080;28;92283;-57
2023/08/14 04:34:42;;;;;;;2.50;2.20;;;;;;;;;;4994610;28;92109;-57
2023/08/14 04:37:12;;;;;;;3.13;2.00;;;;;;;;;;4988014;28;94116;-57
2023/08/14 04:39:40;;;;;;;2.70;1.73;;;;;;;;;;4980381;28;93599;-57
2023/08/14 04:42:09;;;;;;;3.03;2.40;;;;;;;;;;4986155;28;92027;-57
2023/08/14 04:44:37;;;;;;;4.30;2.37;;;;;;;;;;4979129;28;91360;-57
2023/08/14 04:47:06;;;;;;;4.27;1.80;;;;;;;;;;4991590;28;94042;-57
2023/08/14 04:49:34;;;;;;;7.10;2.30;;;;;;;;;;5001017;28;92726;-57
2023/08/14 04:52:03;;;;;;;2.43;1.67;;;;;;;;;;5001088;28;92951;-57
2023/08/14 04:54:34;;;;;;;3.93;2.03;;;;;;;;;;5001068;28;92098;-57
2023/08/14 04:57:03;;;;;;;3.30;1.80;;;;;;;;;;5001091;28;93152;-58
2023/08/14 04:59:31;;;;;;;2.20;1.70;;;;;;;;;;5000625;28;92683;-57
2023/08/14 05:02:00;;;;;;;2.27;1.70;;;;;;;;;;5001278;28;92729;-57
2023/08/14 05:04:28;;;;;;;1.47;1.37;;;;;;;;;;4991455;28;92225;-57
2023/08/14 05:06:56;;;;;;;3.20;1.90;;;;;;;;;;4982254;28;93098;-57
2023/08/14 05:09:25;;;;;;;1.67;1.40;;;;;;;;;;5000686;28;93751;-57
2023/08/14 05:11:57;;;;;;;2.27;1.50;;;;;;;;;;5000791;28;91983;-57
2023/08/14 05:14:25;;;;;;;2.13;1.70;;;;;;;;;;5000402;28;91926;-57
2023/08/14 05:16:54;;;;;;;2.20;1.57;;;;;;;;;;4999650;28;94072;-58
2023/08/14 05:19:22;;;;;;;2.37;1.77;;;;;;;;;;5000217;28;94861;-57
2023/08/14 05:21:51;;;;;;;1.60;1.50;;;;;;;;;;4986813;28;92073;-57
2023/08/14 05:24:19;;;;;;;2.63;1.50;;;;;;;;;;4980572;28;92036;-57
2023/08/14 05:26:48;;;;;;;1.73;1.13;;;;;;;;;;4980598;28;93200;-57
2023/08/14 05:29:18;;;;;;;1.90;1.33;;;;;;;;;;4979495;28;94034;-57
2023/08/14 05:31:46;;;;;;;2.27;1.37;;;;;;;;;;4992871;28;92537;-57
2023/08/14 05:34:15;;;;;;;1.47;1.33;;;;;;;;;;5000230;28;91220;-57
2023/08/14 05:36:43;;;;;;;2.27;1.40;;;;;;;;;;4999518;28;94034;-57
2023/08/14 05:39:12;;;;;;;1.57;1.00;;;;;;;;;;4999679;28;93926;-57
2023/08/14 05:41:41;;;;;;;2.40;1.43;;;;;;;;;;4999591;28;93035;-57
2023/08/14 05:44:09;;;;;;;1.27;0.87;;;;;;;;;;4999681;28;92126;-57
2023/08/14 05:46:39;;;;;;;1.63;1.00;;;;;;;;;;4999465;28;94107;-58
2023/08/14 05:49:07;;;;;;;1.27;0.90;;;;;;;;;;4999854;28;93876;-57
2023/08/14 05:51:36;;;;;;;1.93;1.50;;;;;;;;;;5000559;28;91969;-57
2023/08/14 05:54:05;;;;;;;1.10;1.00;;;;;;;;;;4999196;28;92172;-57
2023/08/14 05:56:33;;;;;;;1.60;1.23;;;;;;;;;;4999859;28;93117;-57
2023/08/14 05:59:02;;;;;;;2.60;1.23;;;;;;;;;;4998130;28;92985;-57
2023/08/14 06:01:30;;;;;;;1.97;1.33;;;;;;;;;;4990145;28;91836;-57
2023/08/14 06:04:00;;;;;;;1.97;1.13;;;;;;;;;;4997109;28;92184;-57
2023/08/14 06:06:28;;;;;;;1.77;1.07;;;;;;;;;;4978591;28;95665;-57
2023/08/14 06:08:57;;;;;;;2.20;1.30;;;;;;;;;;4987344;28;94893;-58
2023/08/14 06:11:28;;;;;;;2.47;0.97;;;;;;;;;;4999672;28;92440;-57
2023/08/14 06:13:56;;;;;;;0.77;0.77;;;;;;;;;;4998551;28;92399;-57
2023/08/14 06:16:25;;;;;;;1.73;0.90;;;;;;;;;;4985271;28;95650;-57
2023/08/14 06:18:53;;;;;;;2.10;1.40;;;;;;;;;;4996851;28;93896;-57
2023/08/14 06:21:23;;;;;;;2.90;1.03;;;;;;;;;;4995323;28;92093;-57
2023/08/14 06:23:52;;;;;;;1.33;1.20;;;;;;;;;;4999097;28;91345;-57
2023/08/14 06:26:21;;;;;;;2.90;1.70;;;;;;;;;;4993679;28;93324;-57
2023/08/14 06:28:49;;;;;;;1.90;1.33;;;;;;;;;;4986998;28;93966;-57
2023/08/14 06:31:18;;;;;;;1.10;0.87;;;;;;;;;;4999130;28;93097;-57
2023/08/14 06:33:49;;;;;;;1.37;1.20;;;;;;;;;;4999237;28;92071;-57
2023/08/14 06:36:18;;;;;;;2.70;1.60;;;;;;;;;;4999468;28;93257;-57
2023/08/14 06:38:47;;;;;;;1.83;1.47;;;;;;;;;;4999104;28;93879;-57
2023/08/14 06:41:17;;;;;;;2.33;1.63;;;;;;;;;;4999349;28;92118;-57
2023/08/14 06:43:46;;;;;;;2.37;1.70;;;;;;;;;;4999352;28;92090;-57
2023/08/14 06:46:14;;;;;;;1.90;1.40;;;;;;;;;;4998222;28;94202;-57
2023/08/14 06:48:43;;;;;;;4.77;2.33;;;;;;;;;;4998954;28;94158;-57
2023/08/14 06:51:11;;;;;;;3.30;1.93;;;;;;;;;;4999192;28;91770;-57
2023/08/14 06:53:39;;;;;;;3.17;1.90;;;;;;;;;;4998272;28;92042;-57
2023/08/14 06:56:09;;;;;;;2.70;1.90;;;;;;;;;;4996981;28;94285;-57
2023/08/14 06:58:38;;;;;;;2.37;1.80;;;;;;;;;;4996513;28;94713;-57
2023/08/14 07:01:07;;;;;;;2.97;2.27;;;;;;;;;;4997767;28;92025;-57
2023/08/14 07:03:35;;;;;;;4.30;2.10;;;;;;;;;;4997437;28;92110;-57
2023/08/14 07:06:04;;;;;;;1.83;1.60;;;;;;;;;;4993968;28;93099;-57
2023/08/14 07:08:32;;;;;;;4.57;2.07;;;;;;;;;;4995992;28;92592;-57
2023/08/14 07:11:01;;;;;;;3.67;2.33;;;;;;;;;;4998877;28;91843;-57
2023/08/14 07:13:31;;;;;;;3.67;2.13;;;;;;;;;;4999280;28;91213;-57
2023/08/14 07:15:59;;;;;;;4.33;2.30;;;;;;;;;;4998816;28;94085;-57
2023/08/14 07:18:28;;;;;;;4.10;2.50;;;;;;;;;;4997361;28;93951;-57
2023/08/14 07:20:58;;;;;;;3.20;2.37;;;;;;;;;;4993179;28;93043;-57
2023/08/14 07:23:26;;;;;;;2.13;1.70;;;;;;;;;;4978246;28;92075;-57
2023/08/14 07:25:57;;;;;;;5.37;2.00;;;;;;;;;;4978202;28;94199;-57
2023/08/14 07:28:26;;;;;;;2.87;1.83;;;;;;;;;;4978723;28;92552;-57
2023/08/14 07:30:55;;;;;;;2.77;1.80;;;;;;;;;;4978561;28;92002;-57
2023/08/14 07:33:24;;;;;;;2.67;2.00;;;;;;;;;;4993783;28;92096;-57
2023/08/14 07:35:52;;;;;;;2.33;2.10;;;;;;;;;;4996617;28;93093;-57
2023/08/14 07:38:21;;;;;;;2.87;2.03;;;;;;;;;;4997556;28;92754;-57
2023/08/14 07:40:49;;;;;;;2.43;1.83;;;;;;;;;;4997152;28;93480;-57
2023/08/14 07:43:18;;;;;;;2.10;1.90;;;;;;;;;;4993432;28;92244;-57
2023/08/14 07:45:46;;;;;;;3.27;1.87;;;;;;;;;;4991013;28;94238;-57
2023/08/14 07:48:16;;;;;;;3.57;2.20;;;;;;;;;;4996368;28;93864;-57
2023/08/14 07:50:45;;;;;;;2.63;2.13;;;;;;;;;;4997002;28;92279;-57
2023/08/14 07:53:13;;;;;;;3.70;1.80;;;;;;;;;;4997244;28;92064;-57
2023/08/14 07:55:42;;;;;;;3.63;2.50;;;;;;;;;;4996288;28;92305;-57
2023/08/14 07:58:10;;;;;;;3.23;1.97;;;;;;;;;;4996106;28;92745;-57
2023/08/14 08:00:39;;;;;;;5.17;2.07;;;;;;;;;;4994751;28;91984;-58
2023/08/14 08:03:07;;;;;;;8.27;2.17;;;;;;;;;;4998491;28;91330;-57
2023/08/14 08:05:37;;;;;;;1.93;1.73;;;;;;;;;;4998126;28;93071;-57
2023/08/14 08:08:06;;;;;;;2.20;1.67;;;;;;;;;;4997034;28;92965;-57
2023/08/14 08:10:35;;;;;;;1.87;1.43;;;;;;;;;;4997033;28;92979;-57
2023/08/14 08:13:04;;;;;;;2.93;1.93;;;;;;;;;;4997849;28;92044;-57
2023/08/14 08:15:32;;;;;;;1.63;1.50;;;;;;;;;;4997240;28;94158;-57
2023/08/14 08:18:01;;;;;;;2.50;1.80;;;;;;;;;;4997353;28;93023;-57
2023/08/14 08:20:30;;;;;;;2.20;1.60;;;;;;;;;;4998270;28;91832;-57
2023/08/14 08:23:00;;;;;;;3.10;1.70;;;;;;;;;;4994161;28;92113;-57
2023/08/14 08:25:28;;;;;;;2.73;1.67;;;;;;;;;;4992347;28;94942;-57
2023/08/14 08:27:57;;;;;;;4.10;1.53;;;;;;;;;;4995795;28;93803;-57
2023/08/14 08:30:25;;;;;;;2.37;1.43;;;;;;;;;;4983409;28;92710;-57
2023/08/14 08:32:53;;;;;;;1.80;1.17;;;;;;;;;;4996628;28;92208;-57
2023/08/14 08:35:30;;;;;;;2.20;1.43;;;;;;;;;;4995212;28;94459;-57
2023/08/14 08:38:00;;;;;;;2.37;1.70;;;;;;;;;;4993736;28;93836;-57
2023/08/14 08:40:29;;;;;;;3.60;1.97;;;;;;;;;;4983065;28;92028;-57
2023/08/14 08:42:57;;;;;;;2.37;1.50;;;;;;;;;;4996723;28;92129;-57
2023/08/14 08:45:26;;;;;;;1.93;1.60;;;;;;;;;;4994431;28;92224;-57
2023/08/14 08:47:55;;;;;;;1.17;1.10;;;;;;;;;;4983426;28;92709;-57
2023/08/14 08:50:25;;;;;;;2.23;1.40;;;;;;;;;;4989260;28;92163;-57
2023/08/14 08:52:53;;;;;;;3.73;1.60;;;;;;;;;;4985563;28;91470;-57
2023/08/14 08:55:23;;;;;;;2.17;1.60;;;;;;;;;;4986012;28;93963;-57
2023/08/14 08:57:52;;;;;;;2.53;1.80;;;;;;;;;;4995044;28;93050;-57
2023/08/14 09:00:20;;;;;;;2.43;1.47;;;;;;;;;;4994753;28;92990;-57
2023/08/14 09:02:49;;;;;;;1.27;1.13;;;;;;;;;;4991667;28;92892;-57
2023/08/14 09:05:19;;;;;;;1.80;1.30;;;;;;;;;;4982998;28;93123;-57
2023/08/14 09:07:47;;;;;;;1.87;0.93;;;;;;;;;;4992075;28;93749;-57
2023/08/14 09:10:16;;;;;;;1.90;1.03;;;;;;;;;;4980884;28;92145;-57
2023/08/14 09:12:46;;;;;;;1.13;1.03;;;;;;;;;;4984233;28;92198;-57
2023/08/14 09:15:14;;;;;;;1.53;1.17;;;;;;;;;;4985240;28;93771;-57
2023/08/14 09:17:43;;;;;;;1.33;1.03;;;;;;;;;;4996267;28;92721;-57
2023/08/14 09:20:14;;;;;;;0.80;0.80;;;;;;;;;;4997628;28;91954;-57
2023/08/14 09:22:57;;;;;;;2.30;1.10;;;;;;;;;;4980428;28;94323;-57
2023/08/14 09:25:25;;;;;;;0.80;0.63;;;;;;;;;;4984042;28;94389;-57
2023/08/14 09:27:56;;;;;;;1.27;0.90;;;;;;;;;;4980688;28;93698;-57
2023/08/14 09:30:25;;;;;;;1.73;0.80;;;;;;;;;;4998098;28;92031;-57
2023/08/14 09:32:54;;;;;;;1.13;0.80;;;;;;;;;;4984647;28;92104;-57
2023/08/14 09:35:23;;;;;;;1.63;0.60;;;;;;;;;;4996254;28;94271;-57
2023/08/14 09:37:51;;;;;;;2.63;0.90;;;;;;;;;;4987409;28;92779;-57
2023/08/14 09:40:21;;;;;;;0.70;0.70;;;;;;;;;;4990527;28;92022;-58
2023/08/14 09:42:50;;;;;;;0.63;0.60;;;;;;;;;;4996678;28;91294;-56
2023/08/14 09:45:23;;;;;;;1.73;0.80;;;;;;;;;;4990996;28;94000;-56
2023/08/14 09:47:52;;;;;;;3.30;1.00;;;;;;;;;;4999390;28;92717;-57
2023/08/14 09:50:25;;;;;;;0.83;0.60;;;;;;;;;;4998926;28;92840;-57
2023/08/14 09:52:54;;;;;;;3.03;0.77;;;;;;;;;;4999503;28;92122;-56
2023/08/14 09:55:22;;;;;;;0.57;0.50;;;;;;;;;;4999684;28;94202;-56
2023/08/14 09:57:51;;;;;;;2.87;0.70;;;;;;;;;;4998999;28;93536;-56
2023/08/14 10:00:21;;;;;;;2.30;0.77;;;;;;;;;;4999739;28;92046;-56
2023/08/14 10:02:49;;;;;;;1.20;0.63;;;;;;;;;;4999521;28;91989;-56
2023/08/14 10:05:18;;;;;;;0.57;0.57;;;;;;;;;;4998767;28;93428;-57
2023/08/14 10:07:46;;;;;;;1.67;0.70;;;;;;;;;;4999653;28;91579;-56
2023/08/14 10:10:15;;;;;;;2.63;1.10;;;;;;;;;;4997738;28;92381;-56
2023/08/14 10:12:45;;;;;;;1.63;0.90;;;;;;;;;;4997381;28;92204;-59
2023/08/14 10:15:14;;;;;;;1.33;0.90;;;;;;;;;;4983831;28;93098;-59
2023/08/14 10:17:45;;;;;;;1.07;0.83;;;;;;;;;;4981861;28;93869;-59
2023/08/14 10:20:14;;;;;;;2.10;0.90;;;;;;;;;;5000017;28;91861;-59
2023/08/14 10:22:43;;;;;;;0.83;0.80;;;;;;;;;;4999641;28;92052;-59
2023/08/14 10:25:11;;;;;;;1.67;0.70;;;;;;;;;;4999181;28;94189;-59
2023/08/14 10:27:39;;;;;;;0.87;0.80;;;;;;;;;;4991155;28;95019;-59
2023/08/14 10:30:09;;;;;;;2.87;1.07;;;;;;;;;;4995125;28;92086;-59
2023/08/14 10:32:37;;;;;;;1.63;1.17;;;;;;;;;;4999620;28;91261;-59
2023/08/14 10:35:08;;;;;;;1.93;0.83;;;;;;;;;;4985008;28;94483;-59
2023/08/14 10:37:43;;;;;;;1.87;1.20;;;;;;;;;;4993853;28;92788;-59
2023/08/14 10:40:24;;;;;;;5.60;1.43;;;;;;;;;;4997917;28;93037;-59
2023/08/14 10:42:52;;;;;;;6.53;1.60;;;;;;;;;;4986609;28;92080;-59
2023/08/14 10:45:23;;;;;;;3.87;1.53;;;;;;;;;;4994170;28;93081;-59
2023/08/14 10:47:51;;;;;;;2.70;1.57;;;;;;;;;;4990140;28;92753;-59
2023/08/14 10:50:21;;;;;;;11.10;2.23;;;;;;;;;;4997128;28;92084;-59
2023/08/14 10:52:50;;;;;;;9.87;2.50;;;;;;;;;;4988064;28;92092;-59
2023/08/14 10:55:19;;;;;;;12.77;3.73;;;;;;;;;;4997798;28;94298;-59
2023/08/14 10:57:47;;;;;;;12.00;3.23;;;;;;;;;;4988987;28;92619;-59
2023/08/14 11:00:25;;;;;;;12.00;2.73;;;;;;;;;;4996281;28;91796;-59
2023/08/14 11:02:54;;;;;;;11.57;3.00;;;;;;;;;;4985898;28;92028;-59
2023/08/14 11:05:24;;;;;;;16.53;3.87;;;;;;;;;;4991839;28;94264;-59
2023/08/14 11:07:59;;;;;;;13.73;3.77;;;;;;;;;;4982242;28;92991;-59
2023/08/14 11:10:27;;;;;;;23.93;5.07;;;;;;;;;;4978609;28;93196;-59
2023/08/14 11:12:57;;;;;;;16.63;4.73;;;;;;;;;;4979112;28;92013;-59
2023/08/14 11:15:25;;;;;;;24.30;5.23;;;;;;;;;;4978850;28;94317;-59
2023/08/14 11:17:54;;;;;;;13.73;4.53;;;;;;;;;;4978353;28;92673;-59
2023/08/14 11:20:23;;;;;;;18.43;5.00;;;;;;;;;;4978266;28;91938;-59
2023/08/14 11:22:53;;;;;;;15.03;5.23;;;;;;;;;;4978995;28;91366;-59
2023/08/14 11:25:21;;;;;;;13.97;4.77;;;;;;;;;;4978358;28;93222;-59
2023/08/14 11:27:50;;;;;;;22.97;5.03;;;;;;;;;;4978438;28;92838;-59
2023/08/14 11:30:18;;;;;;;22.87;5.63;;;;;;;;;;4978584;28;93011;-59
2023/08/14 11:32:52;;;;;;;20.73;5.00;;;;;;;;;;4978091;28;92082;-59
2023/08/14 11:35:21;;;;;;;16.70;5.13;;;;;;;;;;4977974;28;94177;-63
2023/08/14 11:37:56;;;;;;;17.07;5.50;;;;;;;;;;4978149;28;92625;-59
2023/08/14 11:40:25;;;;;;;23.90;5.03;;;;;;;;;;4978413;28;92043;-59
2023/08/14 11:42:53;;;;;;;22.17;5.67;;;;;;;;;;4977487;28;92322;-59
2023/08/14 11:45:21;;;;;;;13.47;5.13;;;;;;;;;;4977176;28;93593;-59
2023/08/14 11:47:50;;;;;;;12.63;4.17;;;;;;;;;;4978519;28;92758;-59
2023/08/14 11:50:19;;;;;;;15.67;4.93;;;;;;;;;;4978832;28;92012;-59
2023/08/14 11:52:48;;;;;;;17.53;4.83;;;;;;;;;;4976987;28;91998;-59
2023/08/14 11:55:18;;;;;;;10.83;3.80;;;;;;;;;;4977071;28;95136;-59
2023/08/14 11:57:46;;;;;;;19.13;4.90;;;;;;;;;;4977796;28;93845;-59
2023/08/14 12:00:15;;;;;;;12.03;3.73;;;;;;;;;;4977341;28;91994;-59
2023/08/14 12:02:54;;;;;;;16.80;5.07;;;;;;;;;;4977481;28;92156;-59
2023/08/14 12:05:23;;;;;;;9.50;3.97;;;;;;;;;;4977966;28;94279;-59
2023/08/14 12:07:51;;;;;;;13.67;3.30;;;;;;;;;;4976489;28;92793;-59
2023/08/14 12:10:21;;;;;;;13.47;4.70;;;;;;;;;;4977920;28;92160;-59
2023/08/14 12:12:49;;;;;;;10.23;4.57;;;;;;;;;;4977920;28;91380;-59
2023/08/14 12:15:23;;;;;;;11.40;4.67;;;;;;;;;;4977440;28;93068;-59
2023/08/14 12:17:52;;;;;;;20.47;5.53;;;;;;;;;;4977143;28;92875;-59
2023/08/14 12:20:22;;;;;;;12.73;4.80;;;;;;;;;;4977163;28;92958;-59
2023/08/14 12:22:50;;;;;;;12.40;4.30;;;;;;;;;;4977636;28;92144;-59
2023/08/14 12:25:29;;;;;;;17.97;4.50;;;;;;;;;;4977333;28;94223;-59
2023/08/14 12:27:58;;;;;;;14.80;4.00;;;;;;;;;;4977524;28;92825;-59
2023/08/14 12:30:27;;;;;;;13.30;3.90;;;;;;;;;;4977688;28;92004;-59
2023/08/14 12:32:55;;;;;;;18.33;3.87;;;;;;;;;;4977520;28;92044;-59
2023/08/14 12:35:23;;;;;;;10.43;3.30;;;;;;;;;;4977169;28;93143;-59
2023/08/14 12:37:52;;;;;;;11.47;4.00;;;;;;;;;;4977843;28;92511;-59
2023/08/14 12:40:21;;;;;;;8.73;4.00;;;;;;;;;;4977498;28;92182;-59
2023/08/14 12:42:50;;;;;;;8.83;3.47;;;;;;;;;;4976818;28;91990;-59
2023/08/14 12:45:19;;;;;;;8.63;4.33;;;;;;;;;;4976730;28;94059;-59
2023/08/14 12:47:47;;;;;;;12.50;3.70;;;;;;;;;;4977359;28;94716;-59
2023/08/14 12:50:16;;;;;;;10.40;3.70;;;;;;;;;;4977789;28;92034;-59
2023/08/14 12:52:44;;;;;;;8.47;3.97;;;;;;;;;;4977412;28;92030;-59
2023/08/14 12:55:14;;;;;;;6.57;2.70;;;;;;;;;;4977639;28;92989;-59
2023/08/14 12:57:46;;;;;;;8.10;3.23;;;;;;;;;;4977405;28;92727;-59
2023/08/14 13:00:20;;;;;;;6.60;3.20;;;;;;;;;;4977929;28;92040;-59
2023/08/14 13:02:48;;;;;;;6.40;2.73;;;;;;;;;;4977191;28;91230;-59
2023/08/14 13:05:16;;;;;;;8.03;3.53;;;;;;;;;;4979327;28;94125;-59
2023/08/14 13:07:45;;;;;;;10.30;3.37;;;;;;;;;;4980535;28;92775;-59
2023/08/14 13:10:14;;;;;;;6.50;3.07;;;;;;;;;;4980308;28;93027;-60
2023/08/14 13:12:42;;;;;;;13.00;3.10;;;;;;;;;;4980535;28;92300;-59
2023/08/14 13:15:11;;;;;;;5.40;2.13;;;;;;;;;;4980102;28;93097;-59
2023/08/14 13:17:41;;;;;;;9.10;2.53;;;;;;;;;;4980475;28;92740;-59
2023/08/14 13:20:10;;;;;;;10.67;2.60;;;;;;;;;;4980979;28;92041;-59
2023/08/14 13:22:39;;;;;;;4.43;2.60;;;;;;;;;;4980363;28;92076;-59
2023/08/14 13:25:07;;;;;;;8.17;2.67;;;;;;;;;;4980306;28;93975;-59
2023/08/14 13:27:36;;;;;;;14.10;3.07;;;;;;;;;;4980432;28;94033;-59
2023/08/14 13:30:08;;;;;;;7.37;2.57;;;;;;;;;;4980799;28;91894;-59
2023/08/14 13:32:48;;;;;;;7.30;2.53;;;;;;;;;;4980715;28;91957;-59
2023/08/14 13:35:17;;;;;;;5.87;2.30;;;;;;;;;;4979594;28;94159;-59
2023/08/14 13:37:45;;;;;;;5.07;2.23;;;;;;;;;;4979308;28;92367;-59
2023/08/14 13:40:13;;;;;;;7.77;2.17;;;;;;;;;;4980609;28;92158;-59
2023/08/14 13:42:42;;;;;;;5.53;1.83;;;;;;;;;;4979232;28;92193;-59
2023/08/14 13:45:10;;;;;;;6.13;2.37;;;;;;;;;;4979876;28;94197;-59
2023/08/14 13:47:46;;;;;;;6.60;2.17;;;;;;;;;;4979804;28;93877;-59
2023/08/14 13:50:25;;;;;;;9.43;2.53;;;;;;;;;;4979830;28;91978;-59
2023/08/14 13:53:00;;;;;;;9.70;2.40;;;;;;;;;;4980515;28;91030;-59
2023/08/14 13:55:28;;;;;;;6.10;1.90;;;;;;;;;;4979437;28;94128;-59
2023/08/14 13:57:57;;;;;;;4.93;2.43;;;;;;;;;;4979402;28;91926;-59
2023/08/14 14:00:25;;;;;;;3.87;1.80;;;;;;;;;;4979796;28;93021;-59
2023/08/14 14:02:57;;;;;;;5.47;2.13;;;;;;;;;;4979772;28;92034;-59
2023/08/14 14:05:28;;;;;;;3.80;2.00;;;;;;;;;;4979712;28;93402;-59
2023/08/14 14:07:57;;;;;;;6.67;2.27;;;;;;;;;;4979585;28;93735;-59
2023/08/14 14:10:25;;;;;;;7.20;2.63;;;;;;;;;;4979171;28;92018;-59
2023/08/14 14:12:54;;;;;;;3.00;1.67;;;;;;;;;;4979536;28;92077;-59
2023/08/14 14:15:30;;;;;;;7.33;2.20;;;;;;;;;;4978826;28;93073;-59
2023/08/14 14:17:58;;;;;;;4.17;2.10;;;;;;;;;;4979221;28;93791;-59
2023/08/14 14:20:27;;;;;;;3.73;2.27;;;;;;;;;;4979796;28;92053;-60
2023/08/14 14:22:56;;;;;;;4.80;2.00;;;;;;;;;;4979721;28;91887;-59
2023/08/14 14:25:25;;;;;;;5.33;1.90;;;;;;;;;;4978633;28;93997;-60
2023/08/14 14:27:53;;;;;;;5.60;1.57;;;;;;;;;;4979267;28;93682;-59
2023/08/14 14:30:21;;;;;;;5.23;1.43;;;;;;;;;;4979862;28;92017;-59
2023/08/14 14:32:50;;;;;;;3.20;1.67;;;;;;;;;;4979266;28;92095;-59
2023/08/14 14:35:18;;;;;;;3.80;1.70;;;;;;;;;;4979305;28;94225;-59
2023/08/14 14:37:47;;;;;;;2.37;1.63;;;;;;;;;;4978929;28;92723;-59
2023/08/14 14:40:16;;;;;;;5.03;1.70;;;;;;;;;;4979688;28;91874;-59
2023/08/14 14:42:45;;;;;;;4.10;1.53;;;;;;;;;;4978966;28;91349;-59
2023/08/14 14:45:13;;;;;;;4.97;1.47;;;;;;;;;;4978457;28;93070;-60
2023/08/14 14:48:00;;;;;;;5.00;1.70;;;;;;;;;;4978997;28;92064;-59
2023/08/14 14:50:28;;;;;;;2.23;1.30;;;;;;;;;;4976411;28;93702;-60
2023/08/14 14:52:58;;;;;;;2.33;1.50;;;;;;;;;;4976156;28;92146;-60